sensor_id;sensor_type;location;lat;lon;timestamp;pressure;altitude;pressure_sealevel;temperature;humidity
75247;BME280;63844;50.042;19.224;2023-02-10T00:01:44;100811.41;;;-5.35;72.68
75247;BME280;63844;50.042;19.224;2023-02-10T00:04:12;100818.99;;;-5.23;71.51
75247;BME280;63844;50.042;19.224;2023-02-10T00:06:39;100817.28;;;-5.23;71.46
75247;BME280;63844;50.042;19.224;2023-02-10T00:09:07;100815.56;;;-5.22;71.11
75247;BME280;63844;50.042;19.224;2023-02-10T00:11:33;100810.80;;;-5.19;71.55
75247;BME280;63844;50.042;19.224;2023-02-10T00:14:19;100811.42;;;-5.16;71.02
75247;BME280;63844;50.042;19.224;2023-02-10T00:16:48;100815.02;;;-5.24;71.64
75247;BME280;63844;50.042;19.224;2023-02-10T00:19:14;100811.83;;;-5.27;71.49
75247;BME280;63844;50.042;19.224;2023-02-10T00:21:41;100810.38;;;-5.28;71.92
75247;BME280;63844;50.042;19.224;2023-02-10T00:24:07;100807.14;;;-5.21;70.76
75247;BME280;63844;50.042;19.224;2023-02-10T00:26:34;100803.58;;;-5.25;71.35
75247;BME280;63844;50.042;19.224;2023-02-10T00:29:00;100799.98;;;-5.31;71.15
75247;BME280;63844;50.042;19.224;2023-02-10T00:31:26;100792.35;;;-5.26;72.40
75247;BME280;63844;50.042;19.224;2023-02-10T00:33:53;100788.55;;;-5.12;72.07
75247;BME280;63844;50.042;19.224;2023-02-10T00:36:20;100780.14;;;-4.97;71.68
75247;BME280;63844;50.042;19.224;2023-02-10T00:38:47;100780.67;;;-4.83;70.63
75247;BME280;63844;50.042;19.224;2023-02-10T00:41:16;100777.45;;;-4.73;70.88
75247;BME280;63844;50.042;19.224;2023-02-10T00:43:43;100772.61;;;-4.66;70.59
75247;BME280;63844;50.042;19.224;2023-02-10T00:46:12;100768.89;;;-4.56;70.42
75247;BME280;63844;50.042;19.224;2023-02-10T00:48:39;100757.77;;;-4.51;70.19
75247;BME280;63844;50.042;19.224;2023-02-10T00:51:06;100754.75;;;-4.47;70.12
75247;BME280;63844;50.042;19.224;2023-02-10T00:53:33;100755.76;;;-4.41;69.75
75247;BME280;63844;50.042;19.224;2023-02-10T00:56:00;100757.83;;;-4.34;69.85
75247;BME280;63844;50.042;19.224;2023-02-10T00:58:27;100756.68;;;-4.31;69.77
75247;BME280;63844;50.042;19.224;2023-02-10T01:00:54;100755.36;;;-4.29;69.55
75247;BME280;63844;50.042;19.224;2023-02-10T01:03:21;100750.83;;;-4.30;69.61
75247;BME280;63844;50.042;19.224;2023-02-10T01:05:48;100739.27;;;-4.37;69.82
75247;BME280;63844;50.042;19.224;2023-02-10T01:08:15;100739.20;;;-4.40;70.06
75247;BME280;63844;50.042;19.224;2023-02-10T01:10:42;100742.11;;;-4.41;69.76
75247;BME280;63844;50.042;19.224;2023-02-10T01:13:10;100741.30;;;-4.38;69.95
75247;BME280;63844;50.042;19.224;2023-02-10T01:15:45;100748.84;;;-4.26;69.48
75247;BME280;63844;50.042;19.224;2023-02-10T01:18:12;100758.70;;;-4.17;69.30
75247;BME280;63844;50.042;19.224;2023-02-10T01:20:40;100757.27;;;-4.20;69.89
75247;BME280;63844;50.042;19.224;2023-02-10T01:23:07;100757.49;;;-4.25;70.26
75247;BME280;63844;50.042;19.224;2023-02-10T01:25:34;100757.69;;;-4.25;69.98
75247;BME280;63844;50.042;19.224;2023-02-10T01:28:02;100758.00;;;-4.26;69.78
75247;BME280;63844;50.042;19.224;2023-02-10T01:30:30;100755.89;;;-4.35;70.50
75247;BME280;63844;50.042;19.224;2023-02-10T01:32:56;100746.02;;;-4.44;70.02
75247;BME280;63844;50.042;19.224;2023-02-10T01:35:23;100746.48;;;-4.53;70.37
75247;BME280;63844;50.042;19.224;2023-02-10T01:37:50;100748.55;;;-4.61;70.61
75247;BME280;63844;50.042;19.224;2023-02-10T01:40:16;100747.02;;;-4.67;70.59
75247;BME280;63844;50.042;19.224;2023-02-10T01:42:43;100751.73;;;-4.72;70.43
75247;BME280;63844;50.042;19.224;2023-02-10T01:47:49;100742.31;;;-4.90;71.43
75247;BME280;63844;50.042;19.224;2023-02-10T01:50:18;100743.30;;;-4.99;71.40
75247;BME280;63844;50.042;19.224;2023-02-10T01:52:46;100746.65;;;-5.10;71.75
75247;BME280;63844;50.042;19.224;2023-02-10T01:55:17;100742.21;;;-5.16;72.45
75247;BME280;63844;50.042;19.224;2023-02-10T01:57:44;100741.02;;;-5.15;71.95
75247;BME280;63844;50.042;19.224;2023-02-10T02:00:13;100742.01;;;-5.17;72.07
75247;BME280;63844;50.042;19.224;2023-02-10T02:02:42;100744.62;;;-5.23;72.16
75247;BME280;63844;50.042;19.224;2023-02-10T02:05:29;100750.52;;;-5.28;72.22
75247;BME280;63844;50.042;19.224;2023-02-10T02:08:21;100748.94;;;-5.35;72.50
75247;BME280;63844;50.042;19.224;2023-02-10T02:15:57;100736.07;;;-5.46;72.46
75247;BME280;63844;50.042;19.224;2023-02-10T02:21:34;100716.61;;;-5.57;72.63
75247;BME280;63844;50.042;19.224;2023-02-10T02:27:36;100716.19;;;-5.60;71.89
75247;BME280;63844;50.042;19.224;2023-02-10T02:36:25;100732.05;;;-5.86;72.96
75247;BME280;63844;50.042;19.224;2023-02-10T02:38:59;100732.96;;;-5.91;72.71
75247;BME280;63844;50.042;19.224;2023-02-10T02:41:27;100731.83;;;-5.95;73.09
75247;BME280;63844;50.042;19.224;2023-02-10T02:43:54;100735.11;;;-5.95;73.01
75247;BME280;63844;50.042;19.224;2023-02-10T02:46:32;100733.36;;;-5.95;73.08
75247;BME280;63844;50.042;19.224;2023-02-10T02:49:13;100735.68;;;-5.98;73.05
75247;BME280;63844;50.042;19.224;2023-02-10T02:51:52;100737.59;;;-6.04;73.06
75247;BME280;63844;50.042;19.224;2023-02-10T02:54:44;100737.14;;;-6.01;73.13
75247;BME280;63844;50.042;19.224;2023-02-10T02:57:24;100728.38;;;-6.06;74.76
75247;BME280;63844;50.042;19.224;2023-02-10T03:02:29;100730.45;;;-6.13;73.75
75247;BME280;63844;50.042;19.224;2023-02-10T03:04:57;100728.90;;;-6.13;73.05
75247;BME280;63844;50.042;19.224;2023-02-10T03:07:24;100730.95;;;-6.14;73.14
75247;BME280;63844;50.042;19.224;2023-02-10T03:09:50;100732.70;;;-6.18;73.00
75247;BME280;63844;50.042;19.224;2023-02-10T03:12:17;100726.45;;;-6.20;72.81
75247;BME280;63844;50.042;19.224;2023-02-10T03:14:43;100722.80;;;-6.21;73.63
75247;BME280;63844;50.042;19.224;2023-02-10T03:17:10;100722.34;;;-6.19;73.64
75247;BME280;63844;50.042;19.224;2023-02-10T03:19:36;100731.74;;;-6.21;75.25
75247;BME280;63844;50.042;19.224;2023-02-10T03:22:03;100735.94;;;-6.25;74.69
75247;BME280;63844;50.042;19.224;2023-02-10T03:24:29;100737.60;;;-6.27;73.23
75247;BME280;63844;50.042;19.224;2023-02-10T03:26:56;100745.27;;;-6.30;72.69
75247;BME280;63844;50.042;19.224;2023-02-10T03:29:22;100740.68;;;-6.34;74.71
75247;BME280;63844;50.042;19.224;2023-02-10T03:31:49;100727.17;;;-6.36;74.46
75247;BME280;63844;50.042;19.224;2023-02-10T03:34:16;100736.81;;;-6.36;73.83
75247;BME280;63844;50.042;19.224;2023-02-10T03:36:43;100736.02;;;-6.40;75.53
75247;BME280;63844;50.042;19.224;2023-02-10T03:39:09;100734.48;;;-6.39;74.42
75247;BME280;63844;50.042;19.224;2023-02-10T03:41:36;100742.33;;;-6.42;73.69
75247;BME280;63844;50.042;19.224;2023-02-10T03:44:02;100746.49;;;-6.46;74.18
75247;BME280;63844;50.042;19.224;2023-02-10T03:46:29;100748.34;;;-6.48;75.84
75247;BME280;63844;50.042;19.224;2023-02-10T03:48:55;100751.67;;;-6.51;74.05
75247;BME280;63844;50.042;19.224;2023-02-10T03:51:22;100745.96;;;-6.58;74.20
75247;BME280;63844;50.042;19.224;2023-02-10T03:53:49;100736.73;;;-6.62;74.37
75247;BME280;63844;50.042;19.224;2023-02-10T03:56:15;100727.39;;;-6.63;73.93
75247;BME280;63844;50.042;19.224;2023-02-10T03:58:42;100723.11;;;-6.57;74.62
75247;BME280;63844;50.042;19.224;2023-02-10T04:01:13;100727.27;;;-6.49;73.83
75247;BME280;63844;50.042;19.224;2023-02-10T04:03:40;100736.56;;;-6.44;74.82
75247;BME280;63844;50.042;19.224;2023-02-10T04:06:07;100735.35;;;-6.33;74.89
75247;BME280;63844;50.042;19.224;2023-02-10T04:08:34;100737.09;;;-6.27;74.43
75247;BME280;63844;50.042;19.224;2023-02-10T04:11:02;100738.56;;;-6.30;73.92
75247;BME280;63844;50.042;19.224;2023-02-10T04:13:28;100739.27;;;-6.35;74.61
75247;BME280;63844;50.042;19.224;2023-02-10T04:16:03;100738.21;;;-6.41;74.84
75247;BME280;63844;50.042;19.224;2023-02-10T04:18:30;100733.23;;;-6.46;74.26
75247;BME280;63844;50.042;19.224;2023-02-10T04:20:56;100732.98;;;-6.48;73.66
75247;BME280;63844;50.042;19.224;2023-02-10T04:23:23;100740.42;;;-6.53;73.66
75247;BME280;63844;50.042;19.224;2023-02-10T04:25:50;100740.98;;;-6.63;75.20
75247;BME280;63844;50.042;19.224;2023-02-10T04:28:16;100742.40;;;-6.67;74.36
75247;BME280;63844;50.042;19.224;2023-02-10T04:30:43;100744.53;;;-6.70;73.69
75247;BME280;63844;50.042;19.224;2023-02-10T04:33:09;100752.73;;;-6.73;74.22
75247;BME280;63844;50.042;19.224;2023-02-10T04:35:35;100754.98;;;-6.78;74.87
75247;BME280;63844;50.042;19.224;2023-02-10T04:38:02;100752.92;;;-6.83;74.67
75247;BME280;63844;50.042;19.224;2023-02-10T04:40:30;100755.04;;;-6.87;74.30
75247;BME280;63844;50.042;19.224;2023-02-10T04:42:56;100756.05;;;-6.87;74.31
75247;BME280;63844;50.042;19.224;2023-02-10T04:45:23;100754.65;;;-6.87;73.95
75247;BME280;63844;50.042;19.224;2023-02-10T04:47:49;100758.88;;;-6.90;73.90
75247;BME280;63844;50.042;19.224;2023-02-10T04:50:15;100759.91;;;-6.90;74.61
75247;BME280;63844;50.042;19.224;2023-02-10T04:52:42;100759.05;;;-6.90;74.05
75247;BME280;63844;50.042;19.224;2023-02-10T04:55:08;100763.36;;;-6.90;73.88
75247;BME280;63844;50.042;19.224;2023-02-10T04:57:38;100762.48;;;-6.90;73.68
75247;BME280;63844;50.042;19.224;2023-02-10T05:00:09;100760.75;;;-6.91;74.36
75247;BME280;63844;50.042;19.224;2023-02-10T05:02:36;100761.84;;;-6.89;74.21
75247;BME280;63844;50.042;19.224;2023-02-10T05:05:03;100763.94;;;-6.93;74.95
75247;BME280;63844;50.042;19.224;2023-02-10T05:07:30;100758.15;;;-6.96;75.15
75247;BME280;63844;50.042;19.224;2023-02-10T05:09:57;100762.91;;;-6.93;75.94
75247;BME280;63844;50.042;19.224;2023-02-10T05:12:23;100768.30;;;-6.91;76.54
75247;BME280;63844;50.042;19.224;2023-02-10T05:14:50;100766.67;;;-6.94;74.88
75247;BME280;63844;50.042;19.224;2023-02-10T05:17:16;100769.09;;;-6.99;75.70
75247;BME280;63844;50.042;19.224;2023-02-10T05:19:43;100767.16;;;-7.00;76.40
75247;BME280;63844;50.042;19.224;2023-02-10T05:22:09;100770.35;;;-7.02;76.16
75247;BME280;63844;50.042;19.224;2023-02-10T05:24:36;100774.60;;;-7.04;75.48
75247;BME280;63844;50.042;19.224;2023-02-10T05:27:02;100776.50;;;-7.04;74.92
75247;BME280;63844;50.042;19.224;2023-02-10T05:29:29;100782.41;;;-7.02;74.96
75247;BME280;63844;50.042;19.224;2023-02-10T05:31:55;100785.58;;;-7.00;74.65
75247;BME280;63844;50.042;19.224;2023-02-10T05:34:22;100789.20;;;-7.00;74.65
75247;BME280;63844;50.042;19.224;2023-02-10T05:36:48;100796.05;;;-7.01;75.92
75247;BME280;63844;50.042;19.224;2023-02-10T05:39:16;100798.58;;;-7.02;76.06
75247;BME280;63844;50.042;19.224;2023-02-10T05:41:56;100798.64;;;-7.05;75.22
75247;BME280;63844;50.042;19.224;2023-02-10T05:44:26;100802.34;;;-7.13;74.88
75247;BME280;63844;50.042;19.224;2023-02-10T05:46:53;100804.81;;;-7.21;77.05
75247;BME280;63844;50.042;19.224;2023-02-10T05:49:20;100810.69;;;-7.25;76.14
75247;BME280;63844;50.042;19.224;2023-02-10T05:51:47;100809.40;;;-7.28;75.21
75247;BME280;63844;50.042;19.224;2023-02-10T05:54:13;100812.09;;;-7.30;76.08
75247;BME280;63844;50.042;19.224;2023-02-10T05:56:40;100814.76;;;-7.32;75.72
75247;BME280;63844;50.042;19.224;2023-02-10T05:59:08;100816.31;;;-7.36;76.16
75247;BME280;63844;50.042;19.224;2023-02-10T06:01:36;100826.05;;;-7.38;75.42
75247;BME280;63844;50.042;19.224;2023-02-10T06:04:03;100829.09;;;-7.45;75.22
75247;BME280;63844;50.042;19.224;2023-02-10T06:06:29;100824.13;;;-7.49;75.83
75247;BME280;63844;50.042;19.224;2023-02-10T06:08:56;100823.89;;;-7.51;75.56
75247;BME280;63844;50.042;19.224;2023-02-10T06:11:22;100825.95;;;-7.55;75.38
75247;BME280;63844;50.042;19.224;2023-02-10T06:13:49;100829.09;;;-7.59;75.45
75247;BME280;63844;50.042;19.224;2023-02-10T06:16:15;100832.04;;;-7.63;74.91
75247;BME280;63844;50.042;19.224;2023-02-10T06:18:42;100836.08;;;-7.70;75.76
75247;BME280;63844;50.042;19.224;2023-02-10T06:21:10;100833.64;;;-7.71;77.15
75247;BME280;63844;50.042;19.224;2023-02-10T06:23:37;100828.29;;;-7.71;75.84
75247;BME280;63844;50.042;19.224;2023-02-10T06:26:03;100828.84;;;-7.70;75.49
75247;BME280;63844;50.042;19.224;2023-02-10T06:28:30;100826.89;;;-7.72;75.35
75247;BME280;63844;50.042;19.224;2023-02-10T06:30:57;100832.12;;;-7.74;75.76
75247;BME280;63844;50.042;19.224;2023-02-10T06:33:23;100836.76;;;-7.79;77.50
75247;BME280;63844;50.042;19.224;2023-02-10T06:35:50;100837.73;;;-7.80;79.03
75247;BME280;63844;50.042;19.224;2023-02-10T06:38:16;100833.05;;;-7.77;77.10
75247;BME280;63844;50.042;19.224;2023-02-10T06:40:43;100838.04;;;-7.77;75.86
75247;BME280;63844;50.042;19.224;2023-02-10T06:43:10;100845.27;;;-7.77;77.03
75247;BME280;63844;50.042;19.224;2023-02-10T06:45:36;100848.95;;;-7.70;76.85
75247;BME280;63844;50.042;19.224;2023-02-10T06:48:03;100852.55;;;-7.66;76.88
75247;BME280;63844;50.042;19.224;2023-02-10T06:50:30;100856.06;;;-7.59;77.28
75247;BME280;63844;50.042;19.224;2023-02-10T06:52:56;100856.18;;;-7.51;77.14
75247;BME280;63844;50.042;19.224;2023-02-10T06:55:23;100856.52;;;-7.42;76.62
75247;BME280;63844;50.042;19.224;2023-02-10T06:57:49;100858.27;;;-7.32;76.13
75247;BME280;63844;50.042;19.224;2023-02-10T07:00:16;100859.26;;;-7.24;75.87
75247;BME280;63844;50.042;19.224;2023-02-10T07:02:42;100860.20;;;-7.16;76.17
75247;BME280;63844;50.042;19.224;2023-02-10T07:05:10;100859.45;;;-7.08;75.97
75247;BME280;63844;50.042;19.224;2023-02-10T07:07:38;100859.49;;;-7.02;76.62
75247;BME280;63844;50.042;19.224;2023-02-10T07:10:05;100861.52;;;-6.93;76.58
75247;BME280;63844;50.042;19.224;2023-02-10T07:12:32;100861.42;;;-6.86;76.46
75247;BME280;63844;50.042;19.224;2023-02-10T07:14:58;100862.05;;;-6.77;76.42
75247;BME280;63844;50.042;19.224;2023-02-10T07:17:25;100864.24;;;-6.69;76.34
75247;BME280;63844;50.042;19.224;2023-02-10T07:19:51;100863.19;;;-6.54;76.27
75247;BME280;63844;50.042;19.224;2023-02-10T07:22:18;100861.02;;;-6.41;76.17
75247;BME280;63844;50.042;19.224;2023-02-10T07:24:44;100854.09;;;-6.21;77.41
75247;BME280;63844;50.042;19.224;2023-02-10T07:27:11;100852.16;;;-5.82;76.71
75247;BME280;63844;50.042;19.224;2023-02-10T07:29:37;100851.02;;;-5.38;75.41
75247;BME280;63844;50.042;19.224;2023-02-10T07:32:04;100845.08;;;-5.09;74.78
75247;BME280;63844;50.042;19.224;2023-02-10T07:34:30;100843.96;;;-4.86;73.89
75247;BME280;63844;50.042;19.224;2023-02-10T07:37:01;100844.98;;;-4.61;73.12
75247;BME280;63844;50.042;19.224;2023-02-10T07:39:27;100841.74;;;-4.37;72.73
75247;BME280;63844;50.042;19.224;2023-02-10T07:41:54;100844.70;;;-4.14;71.28
75247;BME280;63844;50.042;19.224;2023-02-10T07:44:20;100847.93;;;-3.94;70.50
75247;BME280;63844;50.042;19.224;2023-02-10T07:46:47;100846.36;;;-3.72;69.63
75247;BME280;63844;50.042;19.224;2023-02-10T07:49:14;100848.17;;;-3.59;69.87
75247;BME280;63844;50.042;19.224;2023-02-10T07:51:40;100848.80;;;-3.38;68.96
75247;BME280;63844;50.042;19.224;2023-02-10T07:54:09;100846.41;;;-3.18;68.01
75247;BME280;63844;50.042;19.224;2023-02-10T07:56:35;100842.73;;;-3.03;67.91
75247;BME280;63844;50.042;19.224;2023-02-10T07:59:02;100843.06;;;-2.84;65.88
75247;BME280;63844;50.042;19.224;2023-02-10T08:01:28;100845.44;;;-2.68;65.35
75247;BME280;63844;50.042;19.224;2023-02-10T08:03:55;100849.30;;;-2.55;64.74
75247;BME280;63844;50.042;19.224;2023-02-10T08:06:25;100848.36;;;-2.39;63.94
75247;BME280;63844;50.042;19.224;2023-02-10T08:08:51;100848.73;;;-2.27;63.58
75247;BME280;63844;50.042;19.224;2023-02-10T08:11:18;100853.08;;;-2.15;63.48
75247;BME280;63844;50.042;19.224;2023-02-10T08:13:44;100858.74;;;-2.08;63.11
75247;BME280;63844;50.042;19.224;2023-02-10T08:16:11;100861.24;;;-2.02;63.01
75247;BME280;63844;50.042;19.224;2023-02-10T08:18:38;100861.03;;;-1.93;62.83
75247;BME280;63844;50.042;19.224;2023-02-10T08:21:05;100863.69;;;-1.90;61.92
75247;BME280;63844;50.042;19.224;2023-02-10T08:23:32;100859.15;;;-1.80;61.73
75247;BME280;63844;50.042;19.224;2023-02-10T08:26:04;100859.75;;;-1.74;61.85
75247;BME280;63844;50.042;19.224;2023-02-10T08:28:33;100860.23;;;-1.64;61.24
75247;BME280;63844;50.042;19.224;2023-02-10T08:31:04;100861.64;;;-1.63;60.50
75247;BME280;63844;50.042;19.224;2023-02-10T08:33:34;100861.96;;;-1.52;60.57
75247;BME280;63844;50.042;19.224;2023-02-10T08:36:09;100859.27;;;-1.45;60.49
75247;BME280;63844;50.042;19.224;2023-02-10T08:38:36;100856.77;;;-1.37;60.01
75247;BME280;63844;50.042;19.224;2023-02-10T08:41:03;100854.45;;;-1.29;59.37
75247;BME280;63844;50.042;19.224;2023-02-10T08:43:30;100862.85;;;-1.23;59.10
75247;BME280;63844;50.042;19.224;2023-02-10T08:46:01;100876.10;;;-1.18;59.14
75247;BME280;63844;50.042;19.224;2023-02-10T08:48:28;100887.42;;;-1.16;59.13
75247;BME280;63844;50.042;19.224;2023-02-10T08:50:57;100886.14;;;-1.07;59.47
75247;BME280;63844;50.042;19.224;2023-02-10T08:53:23;100889.40;;;-0.95;58.86
75247;BME280;63844;50.042;19.224;2023-02-10T08:56:02;100886.59;;;-0.84;58.16
75247;BME280;63844;50.042;19.224;2023-02-10T08:58:30;100879.49;;;-0.80;57.83
75247;BME280;63844;50.042;19.224;2023-02-10T09:00:56;100875.54;;;-0.76;57.58
75247;BME280;63844;50.042;19.224;2023-02-10T09:03:23;100884.30;;;-0.70;57.63
75247;BME280;63844;50.042;19.224;2023-02-10T09:05:50;100883.48;;;-0.63;57.76
75247;BME280;63844;50.042;19.224;2023-02-10T09:08:17;100879.82;;;-0.65;57.02
75247;BME280;63844;50.042;19.224;2023-02-10T09:10:45;100881.05;;;-0.64;56.91
75247;BME280;63844;50.042;19.224;2023-02-10T09:13:12;100878.45;;;-0.63;57.33
75247;BME280;63844;50.042;19.224;2023-02-10T09:15:40;100878.50;;;-0.58;57.48
75247;BME280;63844;50.042;19.224;2023-02-10T09:18:09;100871.38;;;-0.56;57.41
75247;BME280;63844;50.042;19.224;2023-02-10T09:20:36;100870.89;;;-0.55;57.30
75247;BME280;63844;50.042;19.224;2023-02-10T09:23:03;100874.71;;;-0.54;56.98
75247;BME280;63844;50.042;19.224;2023-02-10T09:25:29;100872.69;;;-0.48;57.45
75247;BME280;63844;50.042;19.224;2023-02-10T09:27:56;100866.34;;;-0.37;57.87
75247;BME280;63844;50.042;19.224;2023-02-10T09:30:24;100866.24;;;-0.27;57.83
75247;BME280;63844;50.042;19.224;2023-02-10T09:32:51;100872.95;;;-0.16;57.79
75247;BME280;63844;50.042;19.224;2023-02-10T09:35:18;100879.64;;;-0.08;57.30
75247;BME280;63844;50.042;19.224;2023-02-10T09:37:45;100880.00;;;-0.06;56.66
75247;BME280;63844;50.042;19.224;2023-02-10T09:40:31;100871.85;;;-0.00;56.83
75247;BME280;63844;50.042;19.224;2023-02-10T09:43:01;100875.91;;;0.07;56.74
75247;BME280;63844;50.042;19.224;2023-02-10T09:45:33;100871.56;;;0.08;56.45
75247;BME280;63844;50.042;19.224;2023-02-10T09:48:31;100879.27;;;0.15;56.18
75247;BME280;63844;50.042;19.224;2023-02-10T09:51:34;100881.20;;;0.17;56.19
75247;BME280;63844;50.042;19.224;2023-02-10T09:54:08;100877.38;;;0.18;55.55
75247;BME280;63844;50.042;19.224;2023-02-10T09:56:36;100876.49;;;0.15;55.57
75247;BME280;63844;50.042;19.224;2023-02-10T09:59:05;100869.40;;;0.23;55.88
75247;BME280;63844;50.042;19.224;2023-02-10T10:01:37;100869.43;;;0.28;55.50
75247;BME280;63844;50.042;19.224;2023-02-10T10:04:15;100870.54;;;0.37;55.78
75247;BME280;63844;50.042;19.224;2023-02-10T10:06:48;100866.35;;;0.38;55.10
75247;BME280;63844;50.042;19.224;2023-02-10T10:12:01;100869.23;;;0.51;55.15
75247;BME280;63844;50.042;19.224;2023-02-10T10:14:33;100864.88;;;0.55;54.97
75247;BME280;63844;50.042;19.224;2023-02-10T10:17:34;100868.20;;;0.58;54.96
75247;BME280;63844;50.042;19.224;2023-02-10T10:20:28;100870.69;;;0.67;55.14
75247;BME280;63844;50.042;19.224;2023-02-10T10:23:02;100866.71;;;0.75;54.93
75247;BME280;63844;50.042;19.224;2023-02-10T10:25:47;100860.50;;;0.91;54.92
75247;BME280;63844;50.042;19.224;2023-02-10T10:31:19;100851.11;;;1.03;54.03
75247;BME280;63844;50.042;19.224;2023-02-10T10:33:55;100845.91;;;1.09;54.14
75247;BME280;63844;50.042;19.224;2023-02-10T10:36:32;100847.48;;;1.08;53.78
75247;BME280;63844;50.042;19.224;2023-02-10T10:39:06;100846.80;;;1.13;53.77
75247;BME280;63844;50.042;19.224;2023-02-10T10:41:36;100842.42;;;1.16;53.54
75247;BME280;63844;50.042;19.224;2023-02-10T10:44:04;100845.07;;;1.23;53.58
75247;BME280;63844;50.042;19.224;2023-02-10T10:46:55;100842.80;;;1.25;53.35
75247;BME280;63844;50.042;19.224;2023-02-10T10:49:25;100838.80;;;1.33;53.34
75247;BME280;63844;50.042;19.224;2023-02-10T10:51:51;100828.70;;;1.34;53.29
75247;BME280;63844;50.042;19.224;2023-02-10T10:54:19;100825.55;;;1.37;53.59
75247;BME280;63844;50.042;19.224;2023-02-10T10:56:54;100823.98;;;1.42;53.66
75247;BME280;63844;50.042;19.224;2023-02-10T10:59:33;100823.64;;;1.45;54.01
75247;BME280;63844;50.042;19.224;2023-02-10T11:02:13;100823.12;;;1.44;54.22
75247;BME280;63844;50.042;19.224;2023-02-10T11:04:41;100820.84;;;1.43;54.02
75247;BME280;63844;50.042;19.224;2023-02-10T11:07:10;100824.14;;;1.28;54.05
75247;BME280;63844;50.042;19.224;2023-02-10T11:09:40;100823.08;;;1.16;54.35
75247;BME280;63844;50.042;19.224;2023-02-10T11:14:51;100819.06;;;1.14;55.13
75247;BME280;63844;50.042;19.224;2023-02-10T11:17:36;100815.41;;;1.22;55.50
75247;BME280;63844;50.042;19.224;2023-02-10T11:22:38;100803.21;;;1.32;55.13
75247;BME280;63844;50.042;19.224;2023-02-10T11:27:51;100806.71;;;1.46;55.00
75247;BME280;63844;50.042;19.224;2023-02-10T11:32:55;100814.73;;;1.53;54.87
75247;BME280;63844;50.042;19.224;2023-02-10T11:35:23;100817.71;;;1.61;55.00
75247;BME280;63844;50.042;19.224;2023-02-10T11:38:01;100822.23;;;1.64;54.59
75247;BME280;63844;50.042;19.224;2023-02-10T11:40:50;100817.17;;;1.65;54.57
75247;BME280;63844;50.042;19.224;2023-02-10T11:43:17;100812.11;;;1.65;54.83
75247;BME280;63844;50.042;19.224;2023-02-10T11:46:00;100808.98;;;1.63;54.66
75247;BME280;63844;50.042;19.224;2023-02-10T11:48:28;100801.29;;;1.66;54.48
75247;BME280;63844;50.042;19.224;2023-02-10T11:51:11;100798.85;;;1.68;54.86
75247;BME280;63844;50.042;19.224;2023-02-10T11:53:40;100802.52;;;1.68;54.91
75247;BME280;63844;50.042;19.224;2023-02-10T11:56:29;100807.75;;;1.70;54.99
75247;BME280;63844;50.042;19.224;2023-02-10T11:59:57;100804.79;;;1.65;55.06
75247;BME280;63844;50.042;19.224;2023-02-10T12:05:28;100799.55;;;1.70;55.51
75247;BME280;63844;50.042;19.224;2023-02-10T12:11:46;100801.82;;;1.83;55.01
75247;BME280;63844;50.042;19.224;2023-02-10T12:14:36;100801.98;;;1.76;55.00
75247;BME280;63844;50.042;19.224;2023-02-10T12:17:28;100801.64;;;1.74;55.33
75247;BME280;63844;50.042;19.224;2023-02-10T12:25:54;100811.42;;;1.69;55.94
75247;BME280;63844;50.042;19.224;2023-02-10T12:28:41;100815.27;;;1.65;55.93
75247;BME280;63844;50.042;19.224;2023-02-10T12:39:19;100810.03;;;1.48;56.42
75247;BME280;63844;50.042;19.224;2023-02-10T12:41:58;100810.72;;;1.44;56.46
75247;BME280;63844;50.042;19.224;2023-02-10T12:52:59;100810.73;;;1.54;56.55
75247;BME280;63844;50.042;19.224;2023-02-10T13:01:08;100815.95;;;1.80;56.39
75247;BME280;63844;50.042;19.224;2023-02-10T13:03:38;100822.05;;;1.92;56.23
75247;BME280;63844;50.042;19.224;2023-02-10T13:06:30;100813.84;;;1.92;56.09
75247;BME280;63844;50.042;19.224;2023-02-10T13:09:39;100811.75;;;1.94;56.10
75247;BME280;63844;50.042;19.224;2023-02-10T13:12:25;100815.23;;;1.94;56.02
75247;BME280;63844;50.042;19.224;2023-02-10T13:14:59;100817.34;;;1.96;56.32
75247;BME280;63844;50.042;19.224;2023-02-10T13:17:36;100811.76;;;1.88;56.17
75247;BME280;63844;50.042;19.224;2023-02-10T13:20:48;100810.02;;;1.87;56.19
75247;BME280;63844;50.042;19.224;2023-02-10T13:23:31;100807.20;;;1.91;56.50
75247;BME280;63844;50.042;19.224;2023-02-10T13:34:24;100811.75;;;1.92;56.66
75247;BME280;63844;50.042;19.224;2023-02-10T13:36:59;100811.05;;;1.91;56.66
75247;BME280;63844;50.042;19.224;2023-02-10T13:39:29;100818.39;;;1.89;56.72
75247;BME280;63844;50.042;19.224;2023-02-10T13:42:14;100818.73;;;1.94;56.61
75247;BME280;63844;50.042;19.224;2023-02-10T13:44:42;100809.66;;;1.92;56.48
75247;BME280;63844;50.042;19.224;2023-02-10T13:47:23;100809.11;;;2.03;56.53
75247;BME280;63844;50.042;19.224;2023-02-10T13:49:55;100809.98;;;2.06;56.26
75247;BME280;63844;50.042;19.224;2023-02-10T13:52:26;100808.05;;;2.11;56.39
75247;BME280;63844;50.042;19.224;2023-02-10T13:54:59;100816.95;;;2.14;56.38
75247;BME280;63844;50.042;19.224;2023-02-10T13:57:33;100823.05;;;2.17;56.56
75247;BME280;63844;50.042;19.224;2023-02-10T14:00:20;100824.11;;;2.14;56.72
75247;BME280;63844;50.042;19.224;2023-02-10T14:03:21;100819.91;;;2.08;57.00
75247;BME280;63844;50.042;19.224;2023-02-10T14:06:05;100832.35;;;1.92;56.91
75247;BME280;63844;50.042;19.224;2023-02-10T14:08:40;100836.89;;;1.87;57.44
75247;BME280;63844;50.042;19.224;2023-02-10T14:13:42;100837.95;;;1.75;57.73
75247;BME280;63844;50.042;19.224;2023-02-10T14:18:45;100837.42;;;1.62;58.10
75247;BME280;63844;50.042;19.224;2023-02-10T14:21:15;100835.68;;;1.55;58.24
75247;BME280;63844;50.042;19.224;2023-02-10T14:23:50;100842.31;;;1.48;58.35
75247;BME280;63844;50.042;19.224;2023-02-10T14:26:20;100846.31;;;1.45;58.44
75247;BME280;63844;50.042;19.224;2023-02-10T14:28:50;100845.97;;;1.42;58.85